広島空港の過去48時間の天気

広島空港 (New hiroshima)

現在時刻: 8/4 19:39 JST (8/4 10:39 UTC) 以下の時間は現地時間です。

過去48時間のMETAR気象情報
時間 風向 風速(m/s) 視程 気温(℃) 湿度(%) 気圧(hPa) 天気現象
4 19:00 不定 1 8000m 26 79 1016
4 18:00 2 8000m 27 74 1015
4 17:00 2 8000m 29 66 1015
4 16:00 2 9000m 30 66 1015
4 15:00 南西 2 10km以上 30 62 1016
4 14:00 2 10km以上 28 66 1016
4 13:00 2 10km以上 29 62 1016
4 12:00 3 10km以上 29 66 1017
4 11:00 南南西 2 10km以上 27 74 1017
4 10:00 南西 2 9000m 26 79 1017
4 09:00 不定 1 9000m 26 79 1017
4 08:00 不定 1 8000m 24 83 1017
4 07:00 不定 1 7000m 24 83 1016
4 06:10 北西 2 7000m 23 89 1016
3 22:00 西南西 1 7000m 24 89 1014
3 21:00 不定 1 8000m 24 89 1015
3 20:00 東南東 2 8000m 24 89 1014
3 19:00 不定 1 9000m 25 89 1014
3 18:00 南南西 2 9000m 27 84 1014
3 17:00 2 10km以上 28 79 1013
3 16:00 南西 3 10km以上 28 74 1013
3 15:00 南西 3 10km以上 29 66 1013
3 14:00 2 10km以上 28 74 1013
3 13:00 南南西 3 10km以上 29 74 1013
3 12:00 2 10km以上 29 70 1014
3 11:00 2 10km以上 28 70 1014
3 10:00 2 10km以上 27 74 1015
3 09:00 2 10km以上 26 84 1014
3 08:00 西 2 10km以上 25 83 1014
3 07:00 北西 2 10km以上 25 83 1015
3 06:10 西北西 2 10km以上 24 89 1014
2 22:00 不定 1 10km以上 25 83 1014
2 21:00 不定 1 10km以上 26 84 1014
2 20:00 南東 2 10km以上 26 84 1013
RJOA 041000Z VRB02KT 8000 NSC 26/22 Q1016
RJOA 040900Z 17003KT 140V200 8000 FEW025 BKN/// 27/22 Q1015
RJOA 040800Z 17004KT 130V200 8000 FEW025 SCT/// 29/22 Q1015
RJOA 040700Z 17003KT 070V240 9000 FEW025 SCT/// 30/23 Q1015
RJOA 040600Z 22004KT 130V270 9999 FEW025 SCT/// 30/22 Q1016
RJOA 040500Z 19004KT 150V240 9999 FEW025 SCT170 BKN/// 28/21 Q1016
RJOA 040400Z 19003KT 120V230 9999 FEW025 BKN/// 29/21 Q1016
RJOA 040300Z 17005KT 110V250 9999 FEW025 BKN/// 29/22 Q1017
RJOA 040200Z 20003KT 160V280 9999 FEW015 SCT170 BKN/// 27/22 Q1017
RJOA 040100Z 23004KT 200V270 9000 FEW015 BKN/// 26/22 Q1017
RJOA 040000Z VRB02KT 9000 FEW012 BKN/// 26/22 Q1017
RJOA 032300Z VRB02KT 8000 FEW015 SCT/// 24/21 Q1017
RJOA 032200Z VRB01KT 7000 NSC 24/21 Q1016
RJOA 032110Z 32003KT 7000 NSC 23/21 Q1016 RMK 1AC150 A3001
RJOA 031300Z 25002KT 7000 NSC 24/22 Q1014
RJOA 031200Z VRB01KT 8000 NSC 24/22 Q1015
RJOA 031100Z 12003KT 8000 NSC 24/22 Q1014
RJOA 031000Z VRB01KT 9000 FEW020 BKN/// 25/23 Q1014
RJOA 030900Z 21003KT 170V250 9000 FEW020 BKN/// 27/24 Q1014
RJOA 030800Z 18003KT 150V210 9999 FEW020 BKN/// 28/24 Q1013
RJOA 030700Z 22005KT 190V260 9999 FEW020 BKN/// 28/23 Q1013
RJOA 030600Z 22005KT 160V260 9999 FEW025 BKN/// 29/22 Q1013
RJOA 030500Z 17004KT 130V260 9999 FEW020 BKN/// 28/23 Q1013
RJOA 030400Z 21005KT 150V270 9999 FEW020 BKN/// 29/24 Q1013
RJOA 030300Z 19004KT 130V220 9999 FEW020 SCT030 BKN/// 29/23 Q1014
RJOA 030200Z 18004KT 120V250 9999 FEW020 BKN/// 28/22 Q1014
RJOA 030100Z 19004KT 140V260 9999 FEW015 SCT030 BKN/// 27/22 Q1015
RJOA 030000Z 19003KT 160V230 9999 FEW020 BKN/// 26/23 Q1014
RJOA 022300Z 27003KT 180V340 9999 FEW020 BKN/// 25/22 Q1014
RJOA 022200Z 31004KT CAVOK 25/22 Q1015
RJOA 022110Z 29003KT CAVOK 24/22 Q1014 RMK A2997
RJOA 021300Z VRB01KT CAVOK 25/22 Q1014
RJOA 021200Z VRB01KT CAVOK 26/23 Q1014
RJOA 021100Z 14003KT CAVOK 26/23 Q1013